Ray Township, Michigan
Current Conditions -  °F | °C
As of 9:55 AM on Sunday 21 Dec 2014 (Local Time) from KMTC Reporting Station
Broken Clouds Broken Clouds  
Wind Chill: 28°   Ceiling: 20000
Heat Index: 28°   Visibility: 7mi
Dew Point: 28°   Wind: 0mph
Humidity: 99%   Direction: NA
Pressure: 30.29"   Gusts: NA
Location:  42.759°N, 82.9232°W
Report Text: KMTC 211455Z 00000KT 7SM SCT036 BKN200 M02/M02 A3029 RMK SLP273 T10221023 55002
Loading
Personal Weather Stations






























Interactive Weather Map New forecast layout! Learn more

10-Day Weather Forecast

Advertisements
Track Severe Weather on mobile